Aviation Digital Data Service (ADDS)

Output produced by METARs form (1801 UTC 20 January 2019)
found at http://www.aviationweather.gov/metar/data/
 
KLAF 201721Z 2018/2118 33009KT P6SM BKN040 
     FM210200 31006KT P6SM SCT130 
     FM210500 35005KT P6SM SCT100 
     FM211600 11005KT P6SM FEW250
       
KLAL 201720Z 2018/2118 30018G27KT P6SM SCT035 OVC050 
     FM202300 30012KT P6SM FEW025 SCT250 
     FM210300 35005KT P6SM SKC 
     FM211400 03008KT P6SM SKC
       
KLAN 201740Z 2018/2118 36009KT P6SM SKC
       
KLAR 201734Z 2018/2118 24020G30KT P6SM SCT120 BKN250 
     FM210000 22015KT P6SM SCT120 BKN200 
     FM211300 22018G25KT P6SM SCT100 BKN200
       
KLAS 201739Z 2018/2124 07006KT P6SM OVC250 
     FM210300 15010G16KT P6SM BKN250 
     FM210600 19012G20KT P6SM BKN250 
     FM210800 22027G35KT P6SM FEW060 SCT250 
     FM211500 28023G32KT P6SM FEW060 SCT140 
     FM211600 32022G32KT P6SM SCT060 SCT100
       
KLAX 201748Z 2018/2124 00000KT P6SM SCT230 BKN300 
     FM202000 27008KT P6SM BKN200 
     FM210300 27012KT P6SM BKN025 
     FM210500 27015G25KT P6SM BKN025 OVC120 
     FM211000 31015G22KT P6SM SCT030 BKN150 
     FM211600 30012KT P6SM SCT150 
     FM212000 28015KT P6SM SCT150
       
KLBB 201724Z 2018/2118 22015KT P6SM SCT250 
     FM210200 20008KT P6SM BKN250
       
KLBE 201729Z 2018/2118 30015G30KT 4SM -SHSN BLSN OVC025 
     TEMPO 2018/2020 2SM -SHSN BLSN OVC015 
     FM202100 31015G25KT P6SM VCSH BKN035 
     FM210800 30012G23KT P6SM BKN025 
     FM211600 29012G23KT P6SM SCT060
       
KLBF 201743Z 2018/2118 VRB05KT P6SM BKN150 
     FM210300 12012KT P6SM BKN025 
     FM210400 13012KT P6SM OVC007
       
KLBL 201720Z 2018/2118 22006KT P6SM SKC 
     FM211200 16007KT P6SM OVC045
       
KLBT 201723Z 2018/2118 28014G26KT P6SM VCSH SCT025 OVC035 
     FM202000 31016G26KT P6SM SCT050 
     FM202300 33010KT P6SM SKC
       
KLCK 201739Z 2018/2118 33012G20KT P6SM BKN018 
     FM202000 32012KT P6SM SCT020 
     FM210100 31006KT P6SM SKC
       
KLCH 201720Z 2018/2118 36008KT P6SM SKC 
     FM210000 VRB03KT P6SM SKC 
     FM211600 10008KT P6SM SKC
       
KLEB 201720Z 2018/2118 35005KT 1/2SM -SN FZFG OVC006 
     FM210000 34009G23KT 2SM BR BKN021 
     FM210200 33010G24KT 2SM BR BKN090 
     FM210300 33012G24KT P6SM BKN090
       
KLEE 201722Z 2018/2118 28017G25KT P6SM BKN025 
     FM202100 29015G22KT P6SM BKN035 
     FM202300 29010KT P6SM SCT035 
     FM210600 32006KT P6SM SKC 
     FM211400 01007KT P6SM SKC
       
KLEX 201720Z 2018/2118 33013KT P6SM SCT150 
     FM210000 34007KT P6SM BKN100 
     FM211000 01004KT P6SM SCT060
       
KLFK 201723Z 2018/2118 33005KT P6SM BKN280 
     FM210000 VRB03KT P6SM BKN280 
     FM211500 13009KT P6SM FEW300
       
KLFT 201720Z 2018/2118 01011KT P6SM SKC 
     FM210000 VRB03KT P6SM SKC 
     FM211600 11007KT P6SM SKC
       
KLGA 201734Z 2018/2124 32016G26KT P6SM SCT009 BKN020 
     FM202000 31018G28KT P6SM SCT015 BKN030 
     FM202200 31020G32KT P6SM SCT030 BKN050 
     FM210000 31024G34KT P6SM SCT050 
     FM211500 30023G36KT P6SM BKN100
       
KLGB 201748Z 2018/2118 00000KT P6SM SKC 
     FM202200 25008KT P6SM BKN200 
     FM210400 28007KT P6SM OVC025 
     FM211000 31014KT P6SM SCT030 BKN150 
     FM211600 30008KT P6SM SCT150
       
KLGU 201758Z 2018/2118 00000KT 2SM BR SCT003 OVC200 
     FM201900 VRB04KT P6SM OVC150 
     FM210700 17006KT P6SM -RASN SCT020 BKN040 
     FM211000 26007KT 3SM -RASN BR SCT010 OVC025 
     FM211300 34010KT 2SM -SN BR SCT010 OVC020
       
KLIT 201724Z 2018/2118 VRB06KT P6SM SKC 
     FM211000 08004KT P6SM SCT250
       
KLLQ 201724Z 2018/2118 VRB06KT P6SM SKC
       
KLMT 201725Z 2018/2118 25012G18KT P6SM -RA BKN035 OVC045 
     FM210300 31005KT 5SM -RASN BR SCT025 OVC040 
     FM210800 30003KT 6SM BR VCFG SCT015
       
KLND 201739Z 2018/2118 VRB05KT P6SM BKN200 WS020/25030KT 
     FM210000 24010KT P6SM SCT150 BKN200 WS020/25050KT 
     FM211600 07006KT 2SM -SN SCT010 OVC025
       
KLNK 201722Z 2018/2118 09010KT P6SM -SN OVC025 
     FM202200 10010KT P6SM OVC025 
     FM211200 13015G25KT P6SM OVC025
       
KLNS 201734Z 2018/2118 32022G30KT P6SM SCT025 BKN050 
     FM211500 30024G33KT P6SM SKC
       
KLOZ 201738Z 2018/2118 33010KT P6SM VCSH BKN025 BKN070 
     FM202000 33010G18KT P6SM SCT200 
     FM210300 35008KT P6SM BKN100 
     FM210800 35005KT P6SM FEW250
       
KLRD 201739Z 2018/2118 09006KT P6SM SKC 
     FM202200 12008KT P6SM SKC 
     TEMPO 2108/2110 5SM BR 
     FM211000 14004KT 4SM BR SCT001 
     FM211300 14006KT P6SM SCT250 
     FM211600 14012G17KT P6SM SCT250
       
KLRU 201720Z 2018/2118 18005KT P6SM FEW250 
     FM210200 21005KT P6SM SKC 
     FM211600 24013G22KT P6SM FEW250
       
KLSE 201720Z 2018/2118 36005KT P6SM SCT200 
     FM202300 VRB03KT P6SM SKC 
     FM211500 14008KT P6SM BKN150
       
TAF KLSV 201450Z 2015/2121 VRB06KT 9999 BKN250 QNH3015INS 
     BECMG 2017/2018 13009KT 9999 BKN250 QNH3010INS 
     BECMG 2102/2103 16015G25KT 9999 SCT200 520009 QNH2990INS 
     BECMG 2105/2106 18020G35KT 9999 FEW200 530009 QNH2985INS 
     BECMG 2111/2112 22025G40KT 9999 FEW200 530009 QNH2970INS TX16/2023Z
TN07/2113Z
       
KLVK 201739Z 2018/2118 22008KT P6SM VCSH BKN025 BKN050 
     TEMPO 2018/2020 3SM -RA BR BKN015 
     FM202300 25014G20KT P6SM -SHRA OVC025 
     FM210400 25014KT 5SM SHRA OVC020 
     FM210900 24010KT P6SM VCSH BKN035 BKN100 
     FM211200 28005KT P6SM BKN050 BKN100
       
KLVM 201733Z 2018/2118 12005KT 3SM -SN BR SCT030 BKN050 OVC080 
     FM202200 20015G28KT P6SM VCSH BKN060 
     FM210200 20025G37KT P6SM VCSH BKN060 
     FM211000 VRB06KT 3SM -SHSN BKN025 OVC050
       
KLVS 201720Z 2018/2118 01006KT P6SM BKN250 
     FM201900 24011G18KT P6SM BKN250 
     FM210100 22010KT P6SM SCT250 
     FM211100 22012KT P6SM SCT200 
     FM211500 22014G24KT P6SM FEW200
       
KLWB 201740Z 2018/2118 32016G28KT 3SM BR BKN012 OVC022 
     TEMPO 2018/2022 1SM -SHSN BLSN OVC008 
     FM202200 31015G25KT P6SM VCSH BKN025 
     FM210500 30013G23KT P6SM BKN045 
     FM210900 30011G19KT P6SM SCT045
       
KLWS 201725Z 2018/2118 10004KT 6SM -RA BKN020 OVC030 
     FM201900 VRB03KT 4SM -RA BR OVC018 
     FM202100 VRB04KT 3SM -RA BR BKN008 OVC015 
     FM210200 27004KT P6SM OVC015
       
KLWT 201745Z 2018/2118 13007KT P6SM VCSH BKN100 
     FM202200 14011G20KT 6SM -SN BKN035 OVC050 
     TEMPO 2100/2102 2SM -SN OVC015 
     FM210400 27009KT P6SM VCSH BKN025 
     FM210900 31010G20KT P6SM BKN035 OVC050
       
KLYH 201740Z 2018/2118 32018G31KT P6SM FEW070 
     FM210000 32012G20KT P6SM FEW250